Time;durP1;ratioP1;P1;durP2;ratioP2;P2;SDS_P1;SDS_P2;PMS_P1;PMS_P2;Temp;Humidity;BMP_temperature;BMP_pressure;BME280_temperature;BME280_humidity;BME280_pressure;Samples;Min_cycle;Max_cycle;Signal;HPM_P1;HPM_P2
2023/01/25 00:01:19;;;;;;;;;;;;;;;16.04;68.63;102658.47;7403826;19;1966;-60
2023/01/25 00:03:48;;;;;;;;;;;;;;;16.05;68.60;102661.03;7404095;19;1934;-61
2023/01/25 00:06:16;;;;;;;;;;;;;;;16.02;68.38;102671.88;7405438;19;1049;-61
2023/01/25 00:08:44;;;;;;;;;;;;;;;16.01;68.46;102655.91;7402592;19;2265;-60
2023/01/25 00:11:15;;;;;;;;;;;;;;;16.01;68.21;102654.09;7401546;19;1974;-61
2023/01/25 00:13:44;;;;;;;;;;;;;;;15.97;68.39;102665.84;7403804;19;1639;-60
2023/01/25 00:16:12;;;;;;;;;;;;;;;15.94;68.34;102659.81;7404058;19;1762;-61
2023/01/25 00:18:40;;;;;;;;;;;;;;;15.93;68.65;102666.94;7403649;19;1714;-61
2023/01/25 00:21:15;;;;;;;;;;;;;;;15.91;68.60;102648.31;7403593;19;2060;-60
2023/01/25 00:23:44;;;;;;;;;;;;;;;15.91;68.59;102652.78;7402142;19;1931;-61
2023/01/25 00:26:15;;;;;;;;;;;;;;;15.90;68.75;102646.59;7401147;19;1649;-61
2023/01/25 00:28:44;;;;;;;;;;;;;;;15.93;68.23;102648.25;7401924;19;1910;-60
2023/01/25 00:31:18;;;;;;;;;;;;;;;15.91;68.33;102656.31;7403649;19;1853;-60
2023/01/25 00:33:52;;;;;;;;;;;;;;;15.93;68.14;102658.94;7403411;19;2040;-60
2023/01/25 00:36:33;;;;;;;;;;;;;;;15.91;68.37;102653.66;7403084;19;1951;-60
2023/01/25 00:39:02;;;;;;;;;;;;;;;15.92;68.29;102635.88;7401921;19;1891;-60
2023/01/25 00:41:33;;;;;;;;;;;;;;;15.88;68.17;102651.16;7402898;19;1695;-60
2023/01/25 00:44:01;;;;;;;;;;;;;;;15.88;68.40;102642.28;7403160;19;1895;-60
2023/01/25 00:46:29;;;;;;;;;;;;;;;15.88;68.27;102652.97;7403584;19;1916;-60
2023/01/25 00:48:58;;;;;;;;;;;;;;;15.85;68.18;102637.94;7402294;19;1880;-60
2023/01/25 00:51:26;;;;;;;;;;;;;;;15.87;68.33;102662.72;7402767;19;1842;-60
2023/01/25 00:53:55;;;;;;;;;;;;;;;15.91;68.22;102651.00;7402098;19;1685;-54
2023/01/25 00:56:23;;;;;;;;;;;;;;;15.88;68.18;102642.28;7399900;19;1841;-54
2023/01/25 00:58:54;;;;;;;;;;;;;;;15.90;67.99;102654.59;7402288;19;1677;-55
2023/01/25 01:01:22;;;;;;;;;;;;;;;15.85;68.13;102648.59;7403396;19;1930;-54
2023/01/25 01:03:53;;;;;;;;;;;;;;;15.81;68.38;102630.16;7402058;19;2063;-55
2023/01/25 01:06:21;;;;;;;;;;;;;;;15.81;68.40;102648.81;7402759;19;1907;-55
2023/01/25 01:08:49;;;;;;;;;;;;;;;15.80;68.36;102645.28;7400339;19;1879;-55
2023/01/25 01:11:18;;;;;;;;;;;;;;;15.80;68.35;102642.63;7402080;19;1838;-55
2023/01/25 01:13:46;;;;;;;;;;;;;;;15.76;68.05;102635.69;7401656;19;1968;-55
2023/01/25 01:16:17;;;;;;;;;;;;;;;15.78;68.23;102652.50;7401849;19;1895;-55
2023/01/25 01:18:46;;;;;;;;;;;;;;;15.76;68.03;102649.03;7401724;19;1754;-55
2023/01/25 01:21:16;;;;;;;;;;;;;;;15.76;68.39;102646.38;7402974;19;1042;-55
2023/01/25 01:23:44;;;;;;;;;;;;;;;15.80;68.22;102661.28;7398964;19;2062;-55
2023/01/25 01:26:14;;;;;;;;;;;;;;;15.74;68.55;102634.91;7403026;19;1903;-55
2023/01/25 01:28:42;;;;;;;;;;;;;;;15.76;68.37;102638.38;7402289;19;1720;-54
2023/01/25 01:31:12;;;;;;;;;;;;;;;15.74;68.11;102631.34;7400980;19;2090;-55
2023/01/25 01:33:43;;;;;;;;;;;;;;;15.74;68.26;102632.22;7400877;19;1788;-55
2023/01/25 01:36:13;;;;;;;;;;;;;;;15.78;68.34;102641.81;7400757;19;1707;-55
2023/01/25 01:38:42;;;;;;;;;;;;;;;15.78;67.94;102636.50;7400684;19;1785;-54
2023/01/25 01:41:11;;;;;;;;;;;;;;;15.77;67.88;102634.75;7399631;19;1759;-55
2023/01/25 01:43:39;;;;;;;;;;;;;;;15.76;68.03;102630.34;7400851;19;1873;-55
2023/01/25 01:46:11;;;;;;;;;;;;;;;15.74;68.32;102618.00;7400707;19;1768;-55
2023/01/25 01:48:41;;;;;;;;;;;;;;;15.76;68.38;102625.03;7401591;19;1853;-55
2023/01/25 01:51:16;;;;;;;;;;;;;;;15.72;68.22;102634.06;7401774;19;1881;-55
2023/01/25 01:53:46;;;;;;;;;;;;;;;15.72;68.49;102636.75;7399355;19;1731;-55
2023/01/25 01:56:17;;;;;;;;;;;;;;;15.70;68.21;102634.13;7400455;19;1947;-55
2023/01/25 01:58:46;;;;;;;;;;;;;;;15.70;68.16;102617.28;7400589;19;2041;-55
2023/01/25 02:01:15;;;;;;;;;;;;;;;15.69;68.00;102620.84;7400109;19;1868;-55
2023/01/25 02:03:43;;;;;;;;;;;;;;;15.72;67.84;102623.41;7401043;19;1889;-55
2023/01/25 02:06:15;;;;;;;;;;;;;;;15.71;68.33;102627.84;7401299;19;1877;-55
2023/01/25 02:08:44;;;;;;;;;;;;;;;15.68;68.19;102616.47;7398539;19;1771;-54
2023/01/25 02:11:14;;;;;;;;;;;;;;;15.65;68.21;102627.25;7400349;19;2033;-55
2023/01/25 02:13:42;;;;;;;;;;;;;;;15.66;68.49;102623.69;7399583;19;1904;-54
2023/01/25 02:16:15;;;;;;;;;;;;;;;15.62;68.50;102604.28;7400632;19;1788;-54
2023/01/25 02:18:43;;;;;;;;;;;;;;;15.64;68.25;102622.88;7400312;19;1867;-54
2023/01/25 02:21:14;;;;;;;;;;;;;;;15.61;68.22;102612.34;7400368;19;1930;-55
2023/01/25 02:23:49;;;;;;;;;;;;;;;15.63;68.31;102615.78;7396912;19;1793;-54
2023/01/25 02:26:20;;;;;;;;;;;;;;;15.61;67.87;102618.53;7400822;19;1917;-55
2023/01/25 02:28:50;;;;;;;;;;;;;;;15.61;68.52;102607.00;7400341;19;1661;-55
2023/01/25 02:31:19;;;;;;;;;;;;;;;15.61;68.10;102618.53;7398867;19;1866;-55
2023/01/25 02:33:47;;;;;;;;;;;;;;;15.57;68.14;102613.41;7399090;19;2012;-54
2023/01/25 02:36:19;;;;;;;;;;;;;;;15.61;68.19;102596.34;7398667;19;1909;-55
2023/01/25 02:38:49;;;;;;;;;;;;;;;15.60;68.41;102605.28;7399033;19;1945;-55
2023/01/25 02:41:24;;;;;;;;;;;;;;;15.59;67.88;102616.88;7400172;19;1885;-55
2023/01/25 02:43:53;;;;;;;;;;;;;;;15.65;67.80;102616.59;7399880;19;1943;-55
2023/01/25 02:46:24;;;;;;;;;;;;;;;15.64;68.19;102601.53;7400244;19;1887;-55
2023/01/25 02:48:53;;;;;;;;;;;;;;;15.69;67.63;102608.38;7398813;19;1929;-54
2023/01/25 02:51:22;;;;;;;;;;;;;;;16.30;65.58;102599.38;7402014;19;1032;-54
2023/01/25 02:53:51;;;;;;;;;;;;;;;17.17;63.54;102585.34;7403666;19;2006;-54
2023/01/25 02:56:22;;;;;;;;;;;;;;;18.46;59.94;102585.53;7403444;19;1907;-54
2023/01/25 02:58:50;;;;;;;;;;;;;;;18.82;58.97;102587.94;7406890;19;1881;-55
2023/01/25 03:01:18;;;;;;;;;;;;;;;19.08;57.99;102573.00;7406348;19;2191;-55
2023/01/25 03:03:47;;;;;;;;;;;;;;;19.48;57.34;102581.28;7406135;19;1948;-55
2023/01/25 03:06:15;;;;;;;;;;;;;;;19.63;56.99;102598.25;7406718;19;1863;-55
2023/01/25 03:08:43;;;;;;;;;;;;;;;19.66;57.02;102599.91;7405377;19;1892;-55
2023/01/25 03:11:12;;;;;;;;;;;;;;;19.48;57.45;102592.03;7406007;19;1885;-55
2023/01/25 03:13:43;;;;;;;;;;;;;;;19.48;57.60;102585.81;7404592;19;1849;-55
2023/01/25 03:16:12;;;;;;;;;;;;;;;19.47;57.71;102582.22;7406234;19;2038;-55
2023/01/25 03:18:41;;;;;;;;;;;;;;;19.54;57.94;102587.25;7405824;19;1864;-54
2023/01/25 03:21:10;;;;;;;;;;;;;;;19.51;57.82;102590.09;7406405;19;1777;-55
2023/01/25 03:23:39;;;;;;;;;;;;;;;19.66;57.33;102589.16;7405643;19;1951;-55
2023/01/25 03:26:08;;;;;;;;;;;;;;;19.70;57.32;102590.69;7406844;19;1913;-55
2023/01/25 03:28:36;;;;;;;;;;;;;;;19.79;57.38;102579.41;7405872;19;1909;-55
2023/01/25 03:31:08;;;;;;;;;;;;;;;19.84;57.37;102581.81;7405583;19;1868;-55
2023/01/25 03:33:36;;;;;;;;;;;;;;;19.79;57.02;102589.28;7402534;19;2011;-55
2023/01/25 03:36:05;;;;;;;;;;;;;;;19.85;57.12;102584.38;7405495;19;1722;-55
2023/01/25 03:38:34;;;;;;;;;;;;;;;19.89;57.15;102589.56;7405267;19;1910;-55
2023/01/25 03:41:02;;;;;;;;;;;;;;;20.00;56.85;102587.06;7405689;19;2063;-55
2023/01/25 03:43:31;;;;;;;;;;;;;;;20.01;56.84;102594.16;7405482;19;1934;-54
2023/01/25 03:46:00;;;;;;;;;;;;;;;20.15;56.34;102585.22;7405571;19;1881;-55
2023/01/25 03:48:31;;;;;;;;;;;;;;;20.15;56.53;102593.28;7406050;19;1965;-55
2023/01/25 03:51:00;;;;;;;;;;;;;;;20.11;56.49;102587.22;7405517;19;1823;-54
2023/01/25 03:53:31;;;;;;;;;;;;;;;20.16;56.25;102582.44;7399370;19;1978;-55
2023/01/25 03:56:01;;;;;;;;;;;;;;;20.08;57.12;102592.81;7403349;19;1877;-55
2023/01/25 03:58:29;;;;;;;;;;;;;;;20.01;56.96;102583.41;7403700;19;2168;-55
2023/01/25 04:00:58;;;;;;;;;;;;;;;19.52;58.40;102592.69;7404358;19;1930;-55
2023/01/25 04:03:27;;;;;;;;;;;;;;;18.74;60.42;102568.75;7403026;19;1917;-55
2023/01/25 04:05:58;;;;;;;;;;;;;;;18.20;61.73;102590.53;7404736;19;1868;-55
2023/01/25 04:08:27;;;;;;;;;;;;;;;18.18;61.98;102592.44;7402029;19;1947;-55
2023/01/25 04:10:56;;;;;;;;;;;;;;;18.56;60.66;102610.88;7404583;19;1868;-55
2023/01/25 04:13:25;;;;;;;;;;;;;;;19.03;59.38;102583.13;7403780;19;1947;-55
2023/01/25 04:15:54;;;;;;;;;;;;;;;19.32;58.39;102588.56;7403696;19;1980;-55
2023/01/25 04:18:23;;;;;;;;;;;;;;;19.27;58.89;102599.53;7404646;19;1934;-55
2023/01/25 04:20:54;;;;;;;;;;;;;;;19.18;58.71;102593.88;7404977;19;2069;-55
2023/01/25 04:23:25;;;;;;;;;;;;;;;19.08;59.27;102582.88;7404117;19;2639;-55
2023/01/25 04:25:54;;;;;;;;;;;;;;;19.05;59.09;102591.94;7404608;19;2075;-55
2023/01/25 04:28:22;;;;;;;;;;;;;;;19.00;59.17;102598.50;7403069;19;2080;-55
2023/01/25 04:30:51;;;;;;;;;;;;;;;18.97;59.45;102585.31;7403043;19;1708;-55
2023/01/25 04:33:19;;;;;;;;;;;;;;;18.91;59.81;102607.97;7401018;19;1928;-55
2023/01/25 04:35:47;;;;;;;;;;;;;;;18.86;60.10;102599.31;7402669;19;1963;-55
2023/01/25 04:38:16;;;;;;;;;;;;;;;18.82;59.85;102608.50;7402191;19;1948;-55
2023/01/25 04:40:47;;;;;;;;;;;;;;;18.89;59.64;102607.19;7404226;19;1914;-55
2023/01/25 04:43:16;;;;;;;;;;;;;;;18.85;59.78;102609.19;7403704;19;1640;-55
2023/01/25 04:45:44;;;;;;;;;;;;;;;18.93;59.60;102589.97;7403554;19;1766;-55
2023/01/25 04:48:14;;;;;;;;;;;;;;;18.90;59.67;102614.31;7402503;19;1871;-55
2023/01/25 04:50:43;;;;;;;;;;;;;;;18.95;59.92;102620.25;7399495;19;1995;-55
2023/01/25 04:53:12;;;;;;;;;;;;;;;18.95;59.70;102597.94;7400588;19;1863;-55
2023/01/25 04:55:40;;;;;;;;;;;;;;;18.92;60.13;102599.00;7401704;19;1773;-55
2023/01/25 04:58:11;;;;;;;;;;;;;;;18.89;60.04;102609.88;7403260;19;1991;-57
2023/01/25 05:00:39;;;;;;;;;;;;;;;18.83;59.85;102604.88;7403233;19;1570;-58
2023/01/25 05:03:07;;;;;;;;;;;;;;;18.78;60.47;102599.78;7401680;19;2037;-57
2023/01/25 05:05:36;;;;;;;;;;;;;;;18.82;60.43;102620.09;7400796;19;1527;-57
2023/01/25 05:08:04;;;;;;;;;;;;;;;18.91;59.90;102607.97;7399390;19;1758;-58
2023/01/25 05:10:32;;;;;;;;;;;;;;;18.96;59.82;102613.94;7398287;19;2269;-58
2023/01/25 05:13:01;;;;;;;;;;;;;;;18.97;59.76;102604.94;7400722;19;1865;-58
2023/01/25 05:15:32;;;;;;;;;;;;;;;18.89;60.07;102604.53;7401097;19;1712;-58
2023/01/25 05:18:00;;;;;;;;;;;;;;;18.81;60.38;102598.75;7401828;19;1640;-58
2023/01/25 05:20:28;;;;;;;;;;;;;;;18.77;60.23;102610.56;7401581;19;1845;-57
2023/01/25 05:22:57;;;;;;;;;;;;;;;18.74;60.31;102611.63;7401882;19;2005;-58
2023/01/25 05:28:06;;;;;;;;;;;;;;;18.77;60.34;102610.56;7397983;19;1543;-57
2023/01/25 05:30:37;;;;;;;;;;;;;;;18.74;61.14;102605.38;7402160;19;1932;-58
2023/01/25 05:33:05;;;;;;;;;;;;;;;18.74;61.87;102610.72;7333238;19;14791;-58
2023/01/25 05:35:34;;;;;;;;;;;;;;;18.73;62.02;102606.34;7399904;19;1940;-57
2023/01/25 05:38:03;;;;;;;;;;;;;;;18.73;62.07;102617.06;7398111;19;2396;-56
2023/01/25 05:40:31;;;;;;;;;;;;;;;18.96;61.36;102613.94;7398272;19;1864;-56
2023/01/25 05:43:00;;;;;;;;;;;;;;;19.20;61.00;102606.25;7400516;19;1944;-57
2023/01/25 05:45:28;;;;;;;;;;;;;;;19.63;59.71;102605.44;7399398;19;2122;-56
2023/01/25 05:48:00;;;;;;;;;;;;;;;19.83;59.54;102602.41;7399329;19;1532;-57
2023/01/25 05:50:28;;;;;;;;;;;;;;;20.19;58.12;102606.44;7397104;19;2008;-57
2023/01/25 05:52:57;;;;;;;;;;;;;;;19.38;60.06;102606.97;7398109;19;1855;-57
2023/01/25 05:55:25;;;;;;;;;;;;;;;18.61;61.75;102616.81;7393990;19;1853;-58
2023/01/25 05:57:56;;;;;;;;;;;;;;;18.12;61.75;102634.75;7399564;19;1500;-58
2023/01/25 06:00:25;;;;;;;;;;;;;;;17.79;62.83;102633.81;7400026;19;1932;-57
2023/01/25 06:02:55;;;;;;;;;;;;;;;18.01;61.48;102628.19;7399921;19;1927;-58
2023/01/25 06:05:26;;;;;;;;;;;;;;;17.78;61.48;102632.06;7398304;19;1957;-58
2023/01/25 06:07:54;;;;;;;;;;;;;;;17.43;62.46;102628.59;7401223;19;1903;-57
2023/01/25 06:10:23;;;;;;;;;;;;;;;17.39;63.07;102641.25;7401050;19;1908;-57
2023/01/25 06:12:51;;;;;;;;;;;;;;;18.42;60.64;102614.31;7400111;19;2010;-58
2023/01/25 06:15:19;;;;;;;;;;;;;;;18.98;58.35;102625.44;7396493;19;2026;-58
2023/01/25 06:17:47;;;;;;;;;;;;;;;19.32;57.60;102622.53;7397418;19;1892;-58
2023/01/25 06:20:16;;;;;;;;;;;;;;;19.10;57.43;102615.81;7396772;19;1952;-58
2023/01/25 06:22:50;;;;;;;;;;;;;;;18.34;59.63;102613.88;7395711;19;2171;-55
2023/01/25 06:25:18;;;;;;;;;;;;;;;18.21;59.99;102642.31;7398986;19;1733;-55
2023/01/25 06:27:47;;;;;;;;;;;;;;;18.84;58.34;102622.69;7402986;19;1853;-55
2023/01/25 06:30:15;;;;;;;;;;;;;;;19.18;57.38;102632.31;7405979;19;1790;-55
2023/01/25 06:32:43;;;;;;;;;;;;;;;19.35;56.79;102628.59;7405721;19;1849;-55
2023/01/25 06:35:12;;;;;;;;;;;;;;;19.34;56.61;102629.56;7405785;19;1847;-54
2023/01/25 06:37:40;;;;;;;;;;;;;;;19.18;56.88;102635.00;7406893;19;1732;-56
2023/01/25 06:40:12;;;;;;;;;;;;;;;19.09;56.98;102632.84;7406854;19;2120;-56
2023/01/25 06:42:40;;;;;;;;;;;;;;;19.05;56.82;102639.34;7404617;19;2054;-56
2023/01/25 06:45:09;;;;;;;;;;;;;;;19.06;56.72;102627.69;7406086;19;2072;-58
2023/01/25 06:47:37;;;;;;;;;;;;;;;19.06;56.50;102623.16;7407182;19;1805;-57
2023/01/25 06:50:06;;;;;;;;;;;;;;;19.28;56.32;102622.75;7405817;19;1954;-57
2023/01/25 06:52:35;;;;;;;;;;;;;;;19.44;55.80;102629.88;7408019;19;1362;-57
2023/01/25 06:55:03;;;;;;;;;;;;;;;19.65;55.43;102625.00;7402804;19;1852;-57
2023/01/25 06:57:34;;;;;;;;;;;;;;;19.80;55.58;102636.66;7406069;19;1589;-55
2023/01/25 07:00:03;;;;;;;;;;;;;;;19.73;55.50;102638.84;7404874;19;1750;-57
2023/01/25 07:02:31;;;;;;;;;;;;;;;19.51;56.51;102633.91;7406571;19;1962;-57
2023/01/25 07:04:59;;;;;;;;;;;;;;;19.35;57.13;102628.59;7405605;19;2210;-58
2023/01/25 07:07:27;;;;;;;;;;;;;;;19.24;57.14;102637.31;7404736;19;1683;-57
2023/01/25 07:09:57;;;;;;;;;;;;;;;19.23;56.83;102634.69;7405152;19;2104;-57
2023/01/25 07:12:26;;;;;;;;;;;;;;;19.33;56.05;102649.28;7404141;19;1821;-57
2023/01/25 07:14:56;;;;;;;;;;;;;;;19.41;56.08;102649.69;7403605;19;1960;-57
2023/01/25 07:17:25;;;;;;;;;;;;;;;19.43;56.13;102645.09;7404678;19;1915;-57
2023/01/25 07:19:53;;;;;;;;;;;;;;;19.48;55.94;102639.47;7406331;19;1923;-57
2023/01/25 07:22:21;;;;;;;;;;;;;;;19.44;56.54;102643.28;7405912;19;1058;-58
2023/01/25 07:24:52;;;;;;;;;;;;;;;19.56;56.15;102647.06;7403480;19;1936;-57
2023/01/25 07:27:21;;;;;;;;;;;;;;;19.55;55.95;102651.53;7405987;19;2151;-57
2023/01/25 07:29:49;;;;;;;;;;;;;;;19.44;56.46;102638.78;7405082;19;1875;-57
2023/01/25 07:32:20;;;;;;;;;;;;;;;19.30;56.77;102651.28;7405805;19;1754;-57
2023/01/25 07:34:48;;;;;;;;;;;;;;;19.20;57.17;102641.13;7403349;19;1994;-58
2023/01/25 07:37:16;;;;;;;;;;;;;;;19.33;56.96;102648.44;7405293;19;1870;-57
2023/01/25 07:39:48;;;;;;;;;;;;;;;19.63;56.00;102653.75;7403239;19;1945;-57
2023/01/25 07:42:17;;;;;;;;;;;;;;;19.53;56.25;102663.31;7404727;19;1986;-57
2023/01/25 07:44:45;;;;;;;;;;;;;;;19.46;56.72;102658.34;7405674;19;1916;-58
2023/01/25 07:47:14;;;;;;;;;;;;;;;19.44;57.01;102648.66;7404253;19;1931;-57
2023/01/25 07:49:44;;;;;;;;;;;;;;;19.44;56.83;102660.25;7403742;19;1943;-57
2023/01/25 07:52:13;;;;;;;;;;;;;;;19.54;56.93;102659.69;7406929;19;1024;-57
2023/01/25 07:54:41;;;;;;;;;;;;;;;19.58;56.63;102650.50;7400820;19;2073;-57
2023/01/25 07:57:09;;;;;;;;;;;;;;;19.47;56.71;102652.00;7405027;19;1939;-57
2023/01/25 07:59:38;;;;;;;;;;;;;;;19.37;57.06;102656.19;7404579;19;1757;-57
2023/01/25 08:02:06;;;;;;;;;;;;;;;19.32;57.09;102661.00;7404044;19;1960;-57
2023/01/25 08:04:34;;;;;;;;;;;;;;;19.27;57.57;102666.59;7405142;19;1782;-57
2023/01/25 08:07:05;;;;;;;;;;;;;;;19.35;57.34;102663.47;7404958;19;2002;-58
2023/01/25 08:09:33;;;;;;;;;;;;;;;19.57;56.79;102643.41;7403636;19;1925;-57
2023/01/25 08:12:02;;;;;;;;;;;;;;;19.50;56.82;102650.09;7403465;19;1742;-57
2023/01/25 08:14:30;;;;;;;;;;;;;;;19.47;57.14;102641.25;7402707;19;1916;-57
2023/01/25 08:16:58;;;;;;;;;;;;;;;19.53;57.07;102647.22;7404207;19;1646;-57
2023/01/25 08:19:27;;;;;;;;;;;;;;;19.53;56.84;102652.59;7404102;19;1940;-57
2023/01/25 08:21:55;;;;;;;;;;;;;;;19.45;56.87;102653.91;7404955;19;1061;-57
2023/01/25 08:24:26;;;;;;;;;;;;;;;19.25;57.55;102643.53;7401996;19;2068;-57
2023/01/25 08:26:54;;;;;;;;;;;;;;;19.24;57.60;102636.44;7403529;19;1916;-57
2023/01/25 08:29:23;;;;;;;;;;;;;;;19.32;57.29;102639.53;7402628;19;1923;-57
2023/01/25 08:31:51;;;;;;;;;;;;;;;19.36;57.40;102641.06;7404391;19;2179;-57
2023/01/25 08:34:19;;;;;;;;;;;;;;;19.59;56.76;102641.47;7403072;19;1980;-57
2023/01/25 08:36:48;;;;;;;;;;;;;;;19.56;56.95;102631.81;7403486;19;2035;-57
2023/01/25 08:39:17;;;;;;;;;;;;;;;19.56;56.65;102641.69;7402080;19;2140;-57
2023/01/25 08:41:48;;;;;;;;;;;;;;;19.60;56.96;102632.50;7404418;19;1908;-57
2023/01/25 08:44:16;;;;;;;;;;;;;;;19.64;56.90;102634.03;7402724;19;2137;-57
2023/01/25 08:46:45;;;;;;;;;;;;;;;19.60;56.80;102638.72;7403226;19;1945;-57
2023/01/25 08:49:13;;;;;;;;;;;;;;;19.45;56.97;102629.75;7403155;19;1987;-57
2023/01/25 08:51:41;;;;;;;;;;;;;;;19.37;57.41;102626.69;7403561;19;2120;-57
2023/01/25 08:54:12;;;;;;;;;;;;;;;19.20;57.95;102632.19;7399517;19;2007;-57
2023/01/25 08:56:40;;;;;;;;;;;;;;;19.31;57.66;102628.88;7402100;19;2143;-57
2023/01/25 08:59:12;;;;;;;;;;;;;;;19.51;57.02;102616.94;7403147;19;1906;-57
2023/01/25 09:01:40;;;;;;;;;;;;;;;19.59;57.12;102625.38;7401666;19;1836;-56
2023/01/25 09:04:08;;;;;;;;;;;;;;;19.60;57.08;102624.44;7402990;19;1739;-57
2023/01/25 09:06:37;;;;;;;;;;;;;;;19.68;56.74;102630.19;7402721;19;1992;-57
2023/01/25 09:09:07;;;;;;;;;;;;;;;19.75;56.62;102628.88;7401099;19;1791;-57
2023/01/25 09:11:37;;;;;;;;;;;;;;;19.70;56.75;102624.75;7401568;19;2037;-57
2023/01/25 09:14:05;;;;;;;;;;;;;;;19.67;56.87;102617.72;7401670;19;1846;-57
2023/01/25 09:16:36;;;;;;;;;;;;;;;19.55;56.80;102607.75;7402124;19;1759;-57
2023/01/25 09:19:05;;;;;;;;;;;;;;;19.42;57.26;102604.97;7401529;19;2059;-57
2023/01/25 09:21:35;;;;;;;;;;;;;;;19.34;57.70;102621.53;7402269;19;1956;-57
2023/01/25 09:24:04;;;;;;;;;;;;;;;19.28;58.06;102628.13;7400191;19;2094;-57
2023/01/25 09:26:33;;;;;;;;;;;;;;;19.35;57.60;102595.56;7401316;19;1870;-57
2023/01/25 09:29:01;;;;;;;;;;;;;;;19.49;57.34;102592.88;7402077;19;1630;-57
2023/01/25 09:31:30;;;;;;;;;;;;;;;19.15;57.75;102599.44;7402038;19;1975;-57
2023/01/25 09:34:01;;;;;;;;;;;;;;;18.50;59.49;102597.78;7400581;19;2011;-57
2023/01/25 09:36:29;;;;;;;;;;;;;;;18.14;61.06;102611.44;7401103;19;1901;-57
2023/01/25 09:39:00;;;;;;;;;;;;;;;18.88;59.09;102576.00;7398724;19;1902;-57
2023/01/25 09:41:35;;;;;;;;;;;;;;;19.30;58.04;102570.81;7400052;19;1728;-55
2023/01/25 09:44:20;;;;;;;;;;;;;;;19.36;57.84;102570.44;7391624;19;1900;-56
2023/01/25 09:46:51;;;;;;;;;;;;;;;19.51;57.44;102568.66;7400117;19;1988;-56
2023/01/25 09:49:37;;;;;;;;;;;;;;;19.59;57.36;102572.56;7399375;19;1784;-56
2023/01/25 09:52:18;;;;;;;;;;;;;;;19.41;57.87;102561.16;7400518;19;1685;-56
2023/01/25 09:54:47;;;;;;;;;;;;;;;19.25;58.16;102557.69;7398898;19;1906;-56
2023/01/25 09:57:17;;;;;;;;;;;;;;;19.17;58.06;102543.88;7400147;19;1880;-56
2023/01/25 09:59:47;;;;;;;;;;;;;;;19.23;58.24;102559.59;7398084;19;1682;-56
2023/01/25 10:02:20;;;;;;;;;;;;;;;19.55;57.49;102562.13;7397032;19;2166;-56
2023/01/25 10:04:50;;;;;;;;;;;;;;;19.60;56.99;102558.19;7397954;19;1672;-56
2023/01/25 10:07:25;;;;;;;;;;;;;;;19.55;57.69;102540.66;7399275;19;1667;-55
2023/01/25 10:09:59;;;;;;;;;;;;;;;19.58;57.48;102553.91;7398528;19;2045;-56
2023/01/25 10:12:30;;;;;;;;;;;;;;;19.68;57.17;102555.91;7398493;19;1574;-55
2023/01/25 10:14:58;;;;;;;;;;;;;;;19.58;57.47;102545.84;7397832;19;1893;-56
2023/01/25 10:17:31;;;;;;;;;;;;;;;19.38;57.84;102552.44;7399431;19;1747;-56
2023/01/25 10:20:07;;;;;;;;;;;;;;;19.34;58.00;102549.09;7397796;19;2008;-56
2023/01/25 10:22:41;;;;;;;;;;;;;;;19.37;57.51;102543.53;7399110;19;1731;-56
2023/01/25 10:25:20;;;;;;;;;;;;;;;19.50;57.43;102553.50;7398046;19;1777;-55
2023/01/25 10:27:55;;;;;;;;;;;;;;;19.57;57.51;102542.28;7397949;19;1893;-53
2023/01/25 10:30:27;;;;;;;;;;;;;;;19.55;57.55;102549.56;7397244;19;1761;-54
2023/01/25 10:32:57;;;;;;;;;;;;;;;19.66;57.28;102532.81;7399819;19;1977;-54
2023/01/25 10:35:29;;;;;;;;;;;;;;;19.69;57.38;102516.50;7397161;19;1977;-54
2023/01/25 10:38:04;;;;;;;;;;;;;;;19.57;57.71;102515.44;7396714;19;1822;-56
2023/01/25 10:40:36;;;;;;;;;;;;;;;19.39;58.09;102501.38;7397558;19;1760;-57
2023/01/25 10:43:09;;;;;;;;;;;;;;;19.33;58.34;102501.75;7400296;19;1536;-56
2023/01/25 10:45:37;;;;;;;;;;;;;;;19.28;58.07;102488.63;7399224;19;1531;-56
2023/01/25 10:48:08;;;;;;;;;;;;;;;19.24;58.21;102486.25;7397656;19;1795;-56
2023/01/25 10:50:51;;;;;;;;;;;;;;;19.41;57.83;102486.03;7397809;19;1911;-56
2023/01/25 10:53:27;;;;;;;;;;;;;;;19.58;57.18;102468.88;7394442;19;1787;-56
2023/01/25 10:56:04;;;;;;;;;;;;;;;19.61;57.58;102463.28;7395314;19;1851;-56
2023/01/25 10:58:34;;;;;;;;;;;;;;;19.55;57.54;102457.47;7397357;19;1806;-56
2023/01/25 11:01:03;;;;;;;;;;;;;;;19.60;57.65;102460.75;7397325;19;1901;-56
2023/01/25 11:03:39;;;;;;;;;;;;;;;19.60;57.77;102448.16;7398339;19;1919;-56
2023/01/25 11:06:07;;;;;;;;;;;;;;;19.51;57.67;102429.13;7396913;19;1681;-56
2023/01/25 11:08:40;;;;;;;;;;;;;;;19.52;57.51;102438.88;7396123;19;1955;-56
2023/01/25 11:11:24;;;;;;;;;;;;;;;19.41;57.66;102424.31;7396680;19;1802;-55
2023/01/25 11:13:53;;;;;;;;;;;;;;;19.30;58.23;102434.00;7403906;19;1743;-55
2023/01/25 11:16:27;;;;;;;;;;;;;;;19.44;57.87;102420.59;7401942;19;1864;-56
2023/01/25 11:18:56;;;;;;;;;;;;;;;19.50;57.62;102435.44;7404810;19;1677;-56
2023/01/25 11:21:26;;;;;;;;;;;;;;;19.71;57.23;102431.41;7406517;19;1328;-56
2023/01/25 11:24:17;;;;;;;;;;;;;;;19.62;57.66;102423.94;7405360;19;1739;-56
2023/01/25 11:26:46;;;;;;;;;;;;;;;19.67;57.17;102411.91;7403584;19;1778;-56
2023/01/25 11:29:16;;;;;;;;;;;;;;;19.66;57.59;102412.03;7404434;19;1896;-56
2023/01/25 11:31:46;;;;;;;;;;;;;;;19.62;57.39;102415.88;7405441;19;1654;-56
2023/01/25 11:34:16;;;;;;;;;;;;;;;19.58;57.60;102425.94;7341946;19;1633;-56
2023/01/25 11:36:51;;;;;;;;;;;;;;;19.37;57.71;102414.75;7406010;19;1814;-56
2023/01/25 11:39:27;;;;;;;;;;;;;;;19.25;58.44;102419.06;7404674;19;1667;-56
2023/01/25 11:42:00;;;;;;;;;;;;;;;19.30;58.29;102426.84;7404749;19;1739;-55
2023/01/25 11:44:43;;;;;;;;;;;;;;;19.33;58.18;102409.69;7404476;19;1647;-56
2023/01/25 11:47:22;;;;;;;;;;;;;;;19.61;57.67;102409.63;7404257;19;1912;-55
2023/01/25 11:49:55;;;;;;;;;;;;;;;19.61;57.58;102398.03;7402838;19;1769;-55
2023/01/25 11:52:28;;;;;;;;;;;;;;;19.62;57.58;102394.41;7402442;19;956;-54
2023/01/25 11:55:02;;;;;;;;;;;;;;;19.69;57.78;102401.09;7398493;19;2208;-54
2023/01/25 11:57:46;;;;;;;;;;;;;;;19.57;57.90;102386.63;7400739;19;1690;-53
2023/01/25 12:00:23;;;;;;;;;;;;;;;19.51;58.16;102402.28;7402013;19;1875;-54
2023/01/25 12:03:06;;;;;;;;;;;;;;;19.44;58.61;102386.59;7401280;19;1700;-55
2023/01/25 12:05:40;;;;;;;;;;;;;;;19.46;58.24;102392.72;7401433;19;1664;-54
2023/01/25 12:08:20;;;;;;;;;;;;;;;19.48;58.33;102385.41;7404010;19;1648;-55
2023/01/25 12:10:57;;;;;;;;;;;;;;;19.43;58.34;102379.47;7403139;19;1647;-55
2023/01/25 12:13:31;;;;;;;;;;;;;;;19.41;58.64;102367.13;7405195;19;1511;-53
2023/01/25 12:16:10;;;;;;;;;;;;;;;19.37;58.70;102385.25;7402430;19;2079;-52
2023/01/25 12:18:47;;;;;;;;;;;;;;;19.27;58.65;102378.75;7402362;19;2046;-52
2023/01/25 12:21:24;;;;;;;;;;;;;;;19.30;58.83;102370.53;7401511;19;1816;-52
2023/01/25 12:23:59;;;;;;;;;;;;;;;19.29;58.55;102376.84;7401112;19;1802;-52
2023/01/25 12:26:31;;;;;;;;;;;;;;;19.37;58.54;102368.28;7402036;19;1642;-52
2023/01/25 12:29:04;;;;;;;;;;;;;;;19.35;58.42;102375.59;6376823;19;10000852;-53
2023/01/25 12:31:37;;;;;;;;;;;;;;;19.44;58.16;102365.13;7392785;19;2217;-53
2023/01/25 12:34:06;;;;;;;;;;;;;;;19.42;58.41;102366.19;7396777;19;1773;-52
2023/01/25 12:36:39;;;;;;;;;;;;;;;19.36;58.33;102358.50;7394821;19;1834;-52
2023/01/25 12:39:12;;;;;;;;;;;;;;;19.33;58.51;102348.84;7396484;19;1513;-52
2023/01/25 12:41:46;;;;;;;;;;;;;;;19.33;58.18;102361.41;7397744;19;1915;-52
2023/01/25 12:44:18;;;;;;;;;;;;;;;19.33;58.05;102361.41;7396478;19;2027;-52
2023/01/25 12:46:52;;;;;;;;;;;;;;;19.28;58.25;102361.72;7395442;19;2234;-52
2023/01/25 12:49:24;;;;;;;;;;;;;;;19.29;58.73;102360.75;7395450;19;1985;-52
2023/01/25 12:51:54;;;;;;;;;;;;;;;19.30;58.13;102348.19;7396793;19;2160;-52
2023/01/25 12:54:25;;;;;;;;;;;;;;;19.35;58.17;102344.25;7393297;19;1520;-53
2023/01/25 12:57:04;;;;;;;;;;;;;;;19.27;57.86;102341.19;7392257;19;1995;-53
2023/01/25 12:59:36;;;;;;;;;;;;;;;19.33;57.95;102348.84;7395975;19;1799;-52
2023/01/25 13:02:11;;;;;;;;;;;;;;;19.33;57.94;102340.81;7397374;19;1339;-52
2023/01/25 13:04:46;;;;;;;;;;;;;;;19.33;57.73;102338.13;7396152;19;1610;-52